createdAt,value
2022-12-13T00:00:33.581Z,75.78
2022-12-13T00:03:01.116Z,75.58
2022-12-13T00:05:28.751Z,76.44
2022-12-13T00:07:57.671Z,76.88
2022-12-13T00:10:25.147Z,77.96
2022-12-13T00:12:52.596Z,76.41
2022-12-13T00:15:20.531Z,77.02
2022-12-13T00:17:48.052Z,78.21
2022-12-13T00:20:15.554Z,79.12
2022-12-13T00:22:43.188Z,77.70
2022-12-13T00:25:12.254Z,77.45
2022-12-13T00:27:39.897Z,77.10
2022-12-13T00:30:08.418Z,77.40
2022-12-13T00:32:35.918Z,77.26
2022-12-13T00:35:03.468Z,76.57
2022-12-13T00:37:31.095Z,77.16
2022-12-13T00:39:58.617Z,77.03
2022-12-13T00:42:27.480Z,77.64
2022-12-13T00:44:55.902Z,77.93
2022-12-13T00:47:24.400Z,78.55
2022-12-13T00:49:51.859Z,77.49
2022-12-13T00:52:19.358Z,77.91
2022-12-13T00:54:47.011Z,77.41
2022-12-13T00:57:14.520Z,77.87
2022-12-13T00:59:43.380Z,76.99
2022-12-13T01:02:11.055Z,77.85
2022-12-13T01:04:38.558Z,77.72
2022-12-13T01:07:06.050Z,77.59
2022-12-13T01:09:33.738Z,76.87
2022-12-13T01:12:03.216Z,77.25
2022-12-13T01:14:30.750Z,77.01
2022-12-13T01:16:59.664Z,76.92
2022-12-13T01:19:27.951Z,77.23
2022-12-13T01:21:55.980Z,78.63
2022-12-13T01:24:24.799Z,78.77
2022-12-13T01:26:52.383Z,77.65
2022-12-13T01:29:26.037Z,76.01
2022-12-13T01:31:54.348Z,75.85
2022-12-13T01:34:26.336Z,75.28
2022-12-13T01:36:54.545Z,76.14
2022-12-13T01:39:26.787Z,75.21
2022-12-13T01:41:59.234Z,75.89
2022-12-13T01:44:41.591Z,75.35
2022-12-13T01:47:09.095Z,75.00
2022-12-13T01:49:38.215Z,76.72
2022-12-13T01:52:07.803Z,77.53
2022-12-13T01:54:35.727Z,78.12
2022-12-13T01:57:03.496Z,77.20
2022-12-13T01:59:31.014Z,75.56
2022-12-13T02:02:00.653Z,74.50
2022-12-13T02:04:31.868Z,75.43
2022-12-13T02:07:01.397Z,75.64
2022-12-13T02:09:29.369Z,74.49
2022-12-13T02:11:56.907Z,74.05
2022-12-13T02:14:24.449Z,73.40
2022-12-13T02:16:53.134Z,74.52
2022-12-13T02:19:50.749Z,74.85
2022-12-13T02:22:34.317Z,75.65
2022-12-13T02:25:14.252Z,75.39
2022-12-13T02:27:52.654Z,74.66
2022-12-13T02:30:31.044Z,74.38
2022-12-13T02:33:09.051Z,73.39
2022-12-13T02:35:38.905Z,73.80
2022-12-13T02:38:11.512Z,74.16
2022-12-13T02:40:42.965Z,73.86
2022-12-13T02:43:15.595Z,74.28
2022-12-13T02:45:52.633Z,74.78
2022-12-13T02:48:22.856Z,74.81
2022-12-13T02:50:51.236Z,74.07
2022-12-13T02:53:19.085Z,72.85
2022-12-13T02:55:46.758Z,72.30
2022-12-13T02:58:15.195Z,72.75
2022-12-13T03:00:54.704Z,72.72
2022-12-13T03:03:29.406Z,73.27
2022-12-13T03:06:23.078Z,72.85
2022-12-13T03:08:53.308Z,72.46
2022-12-13T03:11:20.779Z,73.32
2022-12-13T03:13:48.831Z,73.59
2022-12-13T03:16:24.732Z,73.65
2022-12-13T03:18:53.472Z,72.85
2022-12-13T03:21:21.233Z,73.54
2022-12-13T03:23:48.953Z,73.26
2022-12-13T03:26:18.647Z,72.36
2022-12-13T03:28:46.367Z,72.74
2022-12-13T03:31:14.091Z,73.14
2022-12-13T03:33:43.260Z,72.75
2022-12-13T03:36:11.412Z,72.63
2022-12-13T03:38:40.035Z,72.59
2022-12-13T03:41:08.892Z,72.06
2022-12-13T03:43:36.401Z,73.10
2022-12-13T03:46:03.913Z,73.04
2022-12-13T03:48:31.488Z,73.97
2022-12-13T03:51:00.288Z,73.74
2022-12-13T03:53:33.718Z,73.72
2022-12-13T03:56:02.673Z,73.58
2022-12-13T03:58:35.080Z,73.53
2022-12-13T04:01:06.454Z,73.56
2022-12-13T04:03:35.015Z,73.18
2022-12-13T04:06:04.560Z,74.73
2022-12-13T04:08:32.352Z,74.34
2022-12-13T04:11:00.126Z,74.23
2022-12-13T04:13:32.740Z,73.97
2022-12-13T04:16:01.180Z,73.49
2022-12-13T04:18:28.952Z,74.01
2022-12-13T04:20:57.438Z,74.30
2022-12-13T04:23:26.640Z,74.07
2022-12-13T04:25:54.302Z,74.49
2022-12-13T04:28:23.102Z,74.25
2022-12-13T04:30:52.918Z,73.06
2022-12-13T04:33:22.004Z,73.49
2022-12-13T04:35:49.723Z,74.03
2022-12-13T04:38:17.296Z,75.04
2022-12-13T04:40:46.123Z,75.12
2022-12-13T04:43:13.619Z,74.46
2022-12-13T04:45:41.502Z,74.52
2022-12-13T04:48:09.652Z,74.91
2022-12-13T04:50:37.973Z,74.78
2022-12-13T04:53:05.725Z,73.95
2022-12-13T04:55:33.367Z,74.42
2022-12-13T04:58:02.388Z,74.84
2022-12-13T05:00:30.033Z,74.41
2022-12-13T05:02:57.710Z,73.65
2022-12-13T05:05:25.400Z,73.55
2022-12-13T05:07:53.125Z,73.33
2022-12-13T05:10:34.227Z,74.58
2022-12-13T05:13:05.391Z,76.90
2022-12-13T05:15:33.511Z,80.00
2022-12-13T05:18:10.238Z,77.38
2022-12-13T05:20:39.055Z,75.17
2022-12-13T05:23:06.737Z,74.58
2022-12-13T05:25:35.152Z,73.95
2022-12-13T05:28:27.127Z,73.94
2022-12-13T05:30:52.141Z,76.37
2022-12-13T05:33:20.037Z,74.27
2022-12-13T05:35:47.736Z,74.71
2022-12-13T05:38:15.523Z,75.87
2022-12-13T05:40:43.512Z,76.10
2022-12-13T05:43:22.099Z,80.66
2022-12-13T05:45:51.903Z,80.35
2022-12-13T05:48:24.394Z,77.50
2022-12-13T05:51:10.973Z,76.49
2022-12-13T05:53:40.597Z,75.84
2022-12-13T05:56:08.921Z,76.80
2022-12-13T05:58:38.054Z,77.22
2022-12-13T06:01:08.447Z,76.73
2022-12-13T06:03:36.604Z,76.54
2022-12-13T06:06:05.070Z,75.42
2022-12-13T06:08:32.995Z,75.74
2022-12-13T06:11:10.634Z,75.49
2022-12-13T06:13:42.635Z,74.93
2022-12-13T06:16:23.025Z,74.79
2022-12-13T06:18:54.473Z,73.66
2022-12-13T06:21:27.222Z,73.09
2022-12-13T06:23:55.656Z,72.29
2022-12-13T06:26:23.316Z,72.97
2022-12-13T06:28:50.994Z,73.39
2022-12-13T06:31:20.131Z,74.53
2022-12-13T06:33:47.828Z,74.74
2022-12-13T06:36:15.487Z,74.72
2022-12-13T06:38:43.822Z,73.45
2022-12-13T06:41:13.687Z,73.28
2022-12-13T06:43:42.804Z,73.31
2022-12-13T06:46:10.736Z,73.25
2022-12-13T06:48:41.075Z,72.80
2022-12-13T06:51:09.774Z,72.56
2022-12-13T06:53:38.539Z,73.44
2022-12-13T06:56:07.912Z,72.41
2022-12-13T06:58:36.138Z,72.06
2022-12-13T07:01:04.627Z,76.63
2022-12-13T07:03:32.929Z,78.06
2022-12-13T07:06:05.822Z,80.67
2022-12-13T07:08:33.673Z,79.94
2022-12-13T07:11:01.452Z,80.09
2022-12-13T07:13:29.172Z,80.93
2022-12-13T07:16:01.183Z,78.10
2022-12-13T07:18:29.015Z,78.13
2022-12-13T07:20:56.531Z,78.23
2022-12-13T07:23:25.431Z,79.20
2022-12-13T07:25:54.324Z,79.86
2022-12-13T07:28:22.939Z,78.97
2022-12-13T07:30:50.595Z,76.92
2022-12-13T07:33:22.229Z,75.78
2022-12-13T07:35:55.446Z,74.58
2022-12-13T07:38:24.733Z,75.19
2022-12-13T07:40:52.519Z,75.66
2022-12-13T07:43:20.509Z,78.21
2022-12-13T07:45:48.343Z,78.70
2022-12-13T07:48:16.055Z,77.50
2022-12-13T07:50:44.047Z,77.51
2022-12-13T07:53:11.780Z,77.31
2022-12-13T07:55:40.840Z,77.34
2022-12-13T07:58:11.403Z,79.82
2022-12-13T08:00:39.557Z,79.82
2022-12-13T08:03:07.576Z,77.92
2022-12-13T08:05:38.348Z,77.48
2022-12-13T08:08:08.290Z,76.92
2022-12-13T08:10:36.538Z,76.01
2022-12-13T08:13:06.100Z,75.85
2022-12-13T08:15:33.959Z,75.62
2022-12-13T08:18:01.873Z,77.15
2022-12-13T08:20:29.575Z,76.89
2022-12-13T08:23:02.080Z,78.21
2022-12-13T08:25:30.715Z,77.87
2022-12-13T08:28:01.600Z,77.32
2022-12-13T08:30:32.392Z,76.84
2022-12-13T08:33:05.291Z,77.14
2022-12-13T08:35:34.468Z,76.90
2022-12-13T08:38:02.687Z,77.13
2022-12-13T08:40:30.322Z,77.90
2022-12-13T08:42:57.976Z,78.19
2022-12-13T08:45:26.983Z,76.93
2022-12-13T08:47:58.508Z,77.04
2022-12-13T08:50:26.444Z,76.98
2022-12-13T08:52:54.131Z,76.79
2022-12-13T08:55:31.422Z,76.57
2022-12-13T08:58:01.174Z,77.23
2022-12-13T09:00:29.254Z,77.88
2022-12-13T09:03:06.231Z,77.82
2022-12-13T09:05:38.029Z,78.17
2022-12-13T09:08:23.322Z,78.33
2022-12-13T09:10:59.947Z,77.57
2022-12-13T09:13:32.539Z,77.68
2022-12-13T09:16:04.535Z,78.13
2022-12-13T09:18:36.651Z,78.47
2022-12-13T09:21:10.862Z,79.21
2022-12-13T09:23:45.637Z,78.69
2022-12-13T09:26:16.053Z,79.06
2022-12-13T09:28:43.899Z,78.95
2022-12-13T09:31:13.522Z,80.03
2022-12-13T09:33:43.012Z,80.10
2022-12-13T09:36:12.971Z,80.44
2022-12-13T09:38:40.938Z,80.26
2022-12-13T09:41:19.845Z,80.86
2022-12-13T09:43:51.552Z,80.99
2022-12-13T09:46:24.597Z,81.65
2022-12-13T09:49:01.581Z,81.24
2022-12-13T09:51:43.383Z,81.95
2022-12-13T09:54:18.057Z,81.75
2022-12-13T09:56:50.575Z,82.20
2022-12-13T09:59:19.340Z,81.01
2022-12-13T10:01:47.723Z,82.23
2022-12-13T10:04:19.885Z,83.16
2022-12-13T10:06:47.552Z,82.80
2022-12-13T10:09:15.432Z,82.22
2022-12-13T10:11:50.816Z,83.06
2022-12-13T10:14:23.932Z,83.44
2022-12-13T10:16:53.444Z,82.49
2022-12-13T10:19:28.420Z,82.42
2022-12-13T10:22:02.131Z,81.46
2022-12-13T10:24:37.330Z,81.97
2022-12-13T10:27:13.406Z,83.46
2022-12-13T10:29:59.923Z,84.07
2022-12-13T10:32:28.015Z,84.24
2022-12-13T10:34:57.155Z,84.86
2022-12-13T10:37:30.335Z,84.05
2022-12-13T10:39:58.752Z,83.31
2022-12-13T10:42:32.137Z,83.02
2022-12-13T10:45:15.623Z,83.59
2022-12-13T10:47:45.249Z,83.03
2022-12-13T10:50:25.391Z,83.16
2022-12-13T10:52:52.947Z,83.30
2022-12-13T10:55:24.194Z,83.41
2022-12-13T10:57:52.240Z,83.71
2022-12-13T11:00:31.277Z,83.30
2022-12-13T11:02:58.993Z,82.84
2022-12-13T11:05:29.456Z,82.15
2022-12-13T11:08:00.879Z,82.40
2022-12-13T11:10:29.563Z,82.46
2022-12-13T11:12:58.908Z,82.84
2022-12-13T11:15:26.596Z,82.04
2022-12-13T11:17:54.606Z,82.14
2022-12-13T11:20:23.880Z,81.91
2022-12-13T11:23:01.060Z,81.59
2022-12-13T11:25:32.548Z,81.26
2022-12-13T11:28:26.831Z,81.07
2022-12-13T11:30:58.035Z,81.38
2022-12-13T11:33:31.069Z,80.89
2022-12-13T11:36:04.260Z,81.43
2022-12-13T11:38:33.814Z,80.54
2022-12-13T11:41:04.079Z,81.71
2022-12-13T11:43:33.784Z,84.79
2022-12-13T11:46:01.647Z,81.89
2022-12-13T11:48:32.093Z,81.44
2022-12-13T11:50:59.592Z,80.82
2022-12-13T11:53:28.366Z,81.52
2022-12-13T11:55:58.895Z,81.74
2022-12-13T12:01:16.760Z,80.93
2022-12-13T12:03:46.885Z,81.88
2022-12-13T12:06:17.549Z,80.45
2022-12-13T12:08:47.062Z,80.57
2022-12-13T12:11:19.952Z,80.84
2022-12-13T12:13:51.314Z,79.73
2022-12-13T12:16:22.328Z,80.19
2022-12-13T12:18:50.875Z,79.99
2022-12-13T12:21:21.737Z,79.42
2022-12-13T12:23:53.327Z,79.46
2022-12-13T12:26:23.037Z,79.24
2022-12-13T12:28:56.462Z,79.73
2022-12-13T12:31:30.628Z,79.75
2022-12-13T12:34:00.948Z,78.08
2022-12-13T12:36:32.091Z,79.06
2022-12-13T12:39:19.886Z,79.39
2022-12-13T12:41:52.107Z,77.74
2022-12-13T12:44:22.553Z,76.95
2022-12-13T12:47:18.891Z,77.77
2022-12-13T12:50:03.250Z,76.80
2022-12-13T12:52:38.276Z,76.86
2022-12-13T12:55:13.185Z,77.90
2022-12-13T12:57:52.829Z,77.14
2022-12-13T13:00:22.635Z,77.39
2022-12-13T13:02:53.510Z,76.24
2022-12-13T13:05:26.745Z,77.17
2022-12-13T13:07:56.181Z,76.81
2022-12-13T13:10:26.749Z,77.15
2022-12-13T13:13:12.947Z,77.27
2022-12-13T13:16:04.870Z,77.50
2022-12-13T13:18:45.572Z,78.88
2022-12-13T13:21:43.479Z,77.50
2022-12-13T13:24:18.302Z,77.64
2022-12-13T13:26:46.396Z,75.99
2022-12-13T13:29:27.436Z,77.46
2022-12-13T13:32:01.158Z,77.07
2022-12-13T13:34:30.205Z,77.34
2022-12-13T13:36:57.851Z,75.63
2022-12-13T13:39:46.190Z,78.37
2022-12-13T13:42:18.753Z,77.78
2022-12-13T13:45:22.358Z,77.27
2022-12-13T13:47:54.015Z,78.31
2022-12-13T13:50:34.183Z,77.60
2022-12-13T13:53:05.107Z,77.66
2022-12-13T13:55:40.573Z,77.61
2022-12-13T13:58:22.448Z,78.61
2022-12-13T14:00:57.094Z,79.17
2022-12-13T14:03:50.893Z,78.77
2022-12-13T14:06:36.876Z,77.95
2022-12-13T14:09:40.131Z,78.09
2022-12-13T14:12:53.087Z,77.95
2022-12-13T14:16:03.674Z,77.06
2022-12-13T14:18:59.048Z,78.82
2022-12-13T14:21:36.852Z,78.25
2022-12-13T14:24:21.688Z,78.54
2022-12-13T14:27:00.542Z,79.57
2022-12-13T14:29:31.505Z,79.05
2022-12-13T14:31:59.436Z,79.33
2022-12-13T14:34:30.145Z,78.63
2022-12-13T14:36:59.711Z,79.48
2022-12-13T14:39:29.581Z,78.22
2022-12-13T14:41:58.865Z,79.08
2022-12-13T14:44:28.370Z,79.97
2022-12-13T14:46:57.495Z,81.25
2022-12-13T14:49:26.389Z,80.15
2022-12-13T14:52:01.339Z,81.66
2022-12-13T14:54:32.363Z,81.36
2022-12-13T14:57:02.744Z,81.27
2022-12-13T14:59:31.010Z,81.95
2022-12-13T15:02:02.501Z,81.71
2022-12-13T15:04:31.841Z,80.52
2022-12-13T15:07:04.557Z,80.56
2022-12-13T15:09:32.414Z,81.24
2022-12-13T15:12:23.380Z,80.26
2022-12-13T15:14:51.294Z,80.65
2022-12-13T15:17:27.899Z,80.57
2022-12-13T15:19:55.878Z,81.41
2022-12-13T15:22:29.136Z,80.28
2022-12-13T15:24:58.325Z,81.56
2022-12-13T15:27:26.358Z,81.43
2022-12-13T15:29:54.684Z,82.17
2022-12-13T15:32:23.768Z,82.62
2022-12-13T15:34:52.351Z,89.91
2022-12-13T15:37:29.467Z,91.41
2022-12-13T15:40:00.788Z,90.67
2022-12-13T15:42:32.286Z,90.56
2022-12-13T15:45:02.229Z,90.68
2022-12-13T15:47:30.032Z,91.18
2022-12-13T15:49:59.097Z,90.11
2022-12-13T15:52:34.246Z,86.10
2022-12-13T15:55:03.993Z,86.14
2022-12-13T15:57:33.396Z,85.39
2022-12-13T16:00:16.935Z,85.24
2022-12-13T16:02:52.309Z,84.54
2022-12-13T16:05:26.821Z,85.08
2022-12-13T16:07:56.779Z,84.55
2022-12-13T16:10:24.981Z,84.96
2022-12-13T16:12:58.842Z,84.76
2022-12-13T16:15:28.992Z,83.30
2022-12-13T16:18:07.507Z,82.77
2022-12-13T16:20:35.389Z,82.89
2022-12-13T16:23:08.973Z,82.26
2022-12-13T16:25:37.251Z,81.80
2022-12-13T16:28:05.584Z,81.57
2022-12-13T16:30:56.020Z,81.30
2022-12-13T16:33:27.470Z,81.18
2022-12-13T16:35:57.475Z,80.58
2022-12-13T16:38:27.474Z,81.31
2022-12-13T16:40:56.834Z,81.44
2022-12-13T16:43:32.823Z,82.72
2022-12-13T16:46:02.561Z,82.65
2022-12-13T16:48:50.027Z,85.33
2022-12-13T16:51:18.068Z,82.22
2022-12-13T16:53:47.123Z,81.28
2022-12-13T16:56:17.064Z,81.12
2022-12-13T16:58:49.566Z,84.69
2022-12-13T17:01:19.228Z,83.34
2022-12-13T17:03:46.803Z,86.51
2022-12-13T17:06:14.269Z,84.56
2022-12-13T17:08:41.777Z,83.85
2022-12-13T17:11:16.152Z,84.41
2022-12-13T17:13:47.392Z,84.49
2022-12-13T17:16:15.274Z,87.01
2022-12-13T17:18:43.140Z,85.67
2022-12-13T17:21:11.494Z,84.61
2022-12-13T17:23:39.205Z,86.41
2022-12-13T17:26:07.897Z,85.07
2022-12-13T17:28:36.951Z,84.32
2022-12-13T17:31:08.598Z,87.86
2022-12-13T17:33:36.873Z,85.04
2022-12-13T17:36:05.326Z,86.45
2022-12-13T17:38:33.250Z,84.40
2022-12-13T17:41:00.955Z,82.50
2022-12-13T17:43:35.675Z,84.69
2022-12-13T17:46:06.317Z,84.33
2022-12-13T17:48:40.476Z,82.74
2022-12-13T17:51:09.403Z,83.08
2022-12-13T17:53:37.653Z,82.22
2022-12-13T17:56:07.632Z,82.67
2022-12-13T17:58:35.968Z,83.14
2022-12-13T18:01:12.981Z,81.54
2022-12-13T18:03:41.152Z,83.75
2022-12-13T18:06:09.196Z,82.05
2022-12-13T18:08:38.807Z,85.69
2022-12-13T18:13:55.843Z,87.70
2022-12-13T18:16:33.991Z,85.24
2022-12-13T18:19:03.987Z,83.47
2022-12-13T18:21:31.696Z,83.94
2022-12-13T18:24:00.033Z,81.86
2022-12-13T18:26:27.488Z,81.95
2022-12-13T18:28:54.967Z,82.02
2022-12-13T18:31:24.046Z,83.57
2022-12-13T18:33:54.459Z,85.27
2022-12-13T18:36:22.539Z,85.59
2022-12-13T18:38:50.065Z,83.93
2022-12-13T18:41:18.366Z,85.25
2022-12-13T18:43:46.137Z,86.62
2022-12-13T18:46:14.763Z,84.41
2022-12-13T18:48:42.744Z,83.33
2022-12-13T18:51:11.772Z,83.10
2022-12-13T18:53:40.072Z,82.78
2022-12-13T18:56:17.486Z,84.44
2022-12-13T18:58:46.558Z,85.45
2022-12-13T19:01:15.560Z,84.76
2022-12-13T19:03:44.627Z,83.92
2022-12-13T19:06:17.640Z,84.34
2022-12-13T19:08:48.150Z,85.16
2022-12-13T19:11:15.822Z,85.57
2022-12-13T19:13:43.468Z,84.63
2022-12-13T19:16:13.230Z,84.62
2022-12-13T19:18:40.977Z,88.21
2022-12-13T19:21:10.077Z,85.58
2022-12-13T19:23:40.760Z,83.83
2022-12-13T19:26:09.281Z,83.81
2022-12-13T19:28:38.019Z,85.37
2022-12-13T19:31:06.499Z,87.75
2022-12-13T19:33:34.824Z,86.09
2022-12-13T19:36:03.696Z,85.93
2022-12-13T19:38:31.361Z,86.61
2022-12-13T19:41:01.078Z,86.29
2022-12-13T19:43:28.838Z,86.58
2022-12-13T19:45:56.698Z,84.51
2022-12-13T19:48:24.132Z,86.04
2022-12-13T19:50:51.668Z,86.96
2022-12-13T19:53:19.139Z,85.66
2022-12-13T19:55:48.407Z,84.59
2022-12-13T19:58:17.673Z,85.28
2022-12-13T20:00:45.436Z,86.01
2022-12-13T20:03:13.213Z,85.55
2022-12-13T20:05:45.483Z,85.63
2022-12-13T20:08:13.523Z,85.92
2022-12-13T20:10:41.468Z,88.34
2022-12-13T20:13:09.837Z,88.10
2022-12-13T20:15:38.820Z,87.46
2022-12-13T20:18:06.544Z,86.88
2022-12-13T20:21:02.483Z,86.69
2022-12-13T20:23:21.615Z,86.59
2022-12-13T20:25:49.056Z,88.53
2022-12-13T20:28:16.670Z,90.02
2022-12-13T20:30:45.487Z,89.09
2022-12-13T20:33:14.596Z,90.26
2022-12-13T20:36:15.192Z,91.16
2022-12-13T20:38:34.372Z,89.89
2022-12-13T20:41:02.265Z,90.84
2022-12-13T20:43:30.638Z,90.08
2022-12-13T20:46:04.637Z,87.91
2022-12-13T20:48:32.405Z,88.97
2022-12-13T20:51:00.847Z,88.00
2022-12-13T20:53:28.982Z,86.43
2022-12-13T20:55:58.076Z,85.52
2022-12-13T20:58:26.071Z,86.20
2022-12-13T21:00:54.068Z,86.60
2022-12-13T21:03:23.233Z,86.02
2022-12-13T21:05:51.012Z,85.77
2022-12-13T21:08:36.115Z,87.86
2022-12-13T21:11:24.323Z,89.35
2022-12-13T21:13:52.147Z,91.26
2022-12-13T21:16:20.258Z,88.21
2022-12-13T21:18:49.446Z,85.55
2022-12-13T21:21:17.141Z,84.87
2022-12-13T21:23:44.829Z,84.36
2022-12-13T21:26:12.307Z,84.92
2022-12-13T21:28:40.462Z,86.25
2022-12-13T21:31:08.961Z,87.71
2022-12-13T21:33:37.156Z,87.88
2022-12-13T21:36:14.329Z,87.59
2022-12-13T21:38:41.958Z,86.64
2022-12-13T21:41:09.645Z,85.61
2022-12-13T21:43:40.605Z,86.93
2022-12-13T21:46:10.025Z,86.40
2022-12-13T21:48:38.734Z,87.40
2022-12-13T21:51:07.733Z,86.35
2022-12-13T21:53:36.768Z,84.89
2022-12-13T21:56:34.871Z,85.57
2022-12-13T21:59:17.716Z,86.80
2022-12-13T22:02:03.673Z,86.17
2022-12-13T22:04:31.336Z,84.70
2022-12-13T22:06:59.011Z,87.73
2022-12-13T22:09:28.068Z,90.24
2022-12-13T22:11:55.871Z,88.13
2022-12-13T22:14:23.654Z,88.54
2022-12-13T22:16:51.708Z,89.25
2022-12-13T22:19:19.521Z,88.78
2022-12-13T22:21:47.028Z,88.61
2022-12-13T22:24:14.628Z,88.90
2022-12-13T22:26:43.512Z,84.91
2022-12-13T22:29:12.020Z,85.96
2022-12-13T22:31:39.891Z,85.57
2022-12-13T22:34:07.928Z,83.88
2022-12-13T22:36:35.671Z,86.82
2022-12-13T22:39:03.487Z,85.03
2022-12-13T22:41:31.244Z,84.09
2022-12-13T22:44:00.972Z,85.68
2022-12-13T22:46:29.578Z,86.07
2022-12-13T22:48:57.626Z,87.55
2022-12-13T22:51:25.276Z,89.69
2022-12-13T22:53:52.980Z,88.83
2022-12-13T22:56:22.163Z,86.06
2022-12-13T22:58:55.049Z,84.53
2022-12-13T23:01:24.939Z,82.87
2022-12-13T23:03:52.536Z,83.39
2022-12-13T23:06:20.621Z,81.84
2022-12-13T23:08:50.657Z,82.38
2022-12-13T23:11:35.954Z,82.57
2022-12-13T23:14:06.430Z,86.23
2022-12-13T23:16:36.153Z,84.86
2022-12-13T23:19:39.083Z,85.46
2022-12-13T23:21:53.613Z,86.50
2022-12-13T23:24:21.436Z,83.97
2022-12-13T23:26:49.381Z,83.53
2022-12-13T23:29:16.839Z,85.55
2022-12-13T23:31:48.478Z,85.20
2022-12-13T23:34:16.556Z,85.66
2022-12-13T23:36:44.039Z,84.25
2022-12-13T23:39:11.957Z,83.98
2022-12-13T23:41:39.540Z,86.84
2022-12-13T23:44:07.092Z,88.48
2022-12-13T23:46:35.366Z,87.08
2022-12-13T23:49:05.625Z,89.68
2022-12-13T23:51:34.380Z,86.89
2022-12-13T23:54:02.224Z,86.93
2022-12-13T23:56:30.314Z,85.23
2022-12-13T23:58:58.257Z,86.09
